createdAt,value
2018-11-14T00:01:38.188Z,101174.34
2018-11-14T00:04:05.822Z,101169.80
2018-11-14T00:06:33.425Z,101173.69
2018-11-14T00:09:01.030Z,101180.34
2018-11-14T00:11:28.601Z,101179.70
2018-11-14T00:13:56.278Z,101177.80
2018-11-14T00:16:23.871Z,101170.34
2018-11-14T00:18:51.485Z,101177.80
2018-11-14T00:21:19.141Z,101175.41
2018-11-14T00:23:46.815Z,101176.42
2018-11-14T00:26:14.661Z,101188.52
2018-11-14T00:28:42.336Z,101189.20
2018-11-14T00:31:09.987Z,101194.50
2018-11-14T00:33:37.590Z,101197.51
2018-11-14T00:36:05.400Z,101194.10
2018-11-14T00:38:32.988Z,101199.52
2018-11-14T00:41:00.694Z,101192.73
2018-11-14T00:43:28.382Z,101188.09
2018-11-14T00:45:55.974Z,101195.77
2018-11-14T00:48:23.594Z,101195.50
2018-11-14T00:50:51.235Z,101197.70
2018-11-14T00:53:18.840Z,101202.66
2018-11-14T00:55:46.454Z,101209.73
2018-11-14T00:58:14.100Z,101208.95
2018-11-14T01:00:41.800Z,101212.41
2018-11-14T01:03:09.444Z,101213.50
2018-11-14T01:05:37.103Z,101224.68
2018-11-14T01:08:04.894Z,101212.52
2018-11-14T01:10:32.544Z,101224.97
2018-11-14T01:13:00.264Z,101220.06
2018-11-14T01:15:27.906Z,101215.35
2018-11-14T01:17:55.678Z,101211.65
2018-11-14T01:20:23.420Z,101209.81
2018-11-14T01:22:51.077Z,101206.80
2018-11-14T01:25:19.265Z,101212.97
2018-11-14T01:27:47.057Z,101212.80
2018-11-14T01:30:18.160Z,101210.41
2018-11-14T01:32:46.492Z,101211.97
2018-11-14T01:35:14.750Z,101205.63
2018-11-14T01:37:42.341Z,101203.50
2018-11-14T01:40:18.359Z,101214.58
2018-11-14T01:42:47.295Z,101211.48
2018-11-14T01:45:14.961Z,101210.80
2018-11-14T01:47:42.585Z,101209.02
2018-11-14T01:50:10.551Z,101216.05
2018-11-14T01:52:38.681Z,101209.27
2018-11-14T01:55:09.670Z,101217.27
2018-11-14T01:57:37.272Z,101219.73
2018-11-14T02:00:09.729Z,101215.71
2018-11-14T02:02:37.350Z,101220.03
2018-11-14T02:05:06.983Z,101222.71
2018-11-14T02:07:35.222Z,101226.05
2018-11-14T02:10:03.602Z,101225.66
2018-11-14T02:12:31.302Z,101224.25
2018-11-14T02:14:58.942Z,101229.84
2018-11-14T02:17:26.522Z,101227.26
2018-11-14T02:19:54.186Z,101228.86
2018-11-14T02:22:21.876Z,101225.10
2018-11-14T02:24:49.464Z,101222.62
2018-11-14T02:27:17.121Z,101230.77
2018-11-14T02:29:44.722Z,101223.77
2018-11-14T02:32:12.422Z,101235.47
2018-11-14T02:34:40.058Z,101228.92
2018-11-14T02:37:07.759Z,101226.44
2018-11-14T02:39:35.443Z,101230.70
2018-11-14T02:42:03.105Z,101234.06
2018-11-14T02:44:30.674Z,101235.92
2018-11-14T02:46:58.315Z,101231.31
2018-11-14T02:49:25.989Z,101235.23
2018-11-14T02:51:53.612Z,101242.01
2018-11-14T02:54:21.323Z,101236.77
2018-11-14T02:56:48.935Z,101228.53
2018-11-14T02:59:16.565Z,101234.16
2018-11-14T03:01:44.184Z,101236.71
2018-11-14T03:04:11.825Z,101231.64
2018-11-14T03:06:39.444Z,101232.00
2018-11-14T03:09:08.151Z,101234.48
2018-11-14T03:11:35.737Z,101240.73
2018-11-14T03:14:03.597Z,101247.89
2018-11-14T03:16:31.237Z,101248.38
2018-11-14T03:18:58.867Z,101255.84
2018-11-14T03:21:26.526Z,101248.44
2018-11-14T03:23:54.180Z,101248.86
2018-11-14T03:26:21.807Z,101259.39
2018-11-14T03:28:49.473Z,101257.58
2018-11-14T03:31:17.135Z,101262.13
2018-11-14T03:33:44.882Z,101264.00
2018-11-14T03:36:16.063Z,101269.24
2018-11-14T03:38:43.888Z,101269.80
2018-11-14T03:41:11.443Z,101259.45
2018-11-14T03:43:39.176Z,101257.99
2018-11-14T03:46:06.823Z,101258.38
2018-11-14T03:48:34.530Z,101252.08
2018-11-14T03:51:02.216Z,101257.63
2018-11-14T03:53:29.847Z,101251.78
2018-11-14T03:55:57.473Z,101253.17
2018-11-14T03:58:25.259Z,101195.53
2018-11-14T04:00:52.742Z,101253.52
2018-11-14T04:03:20.459Z,101250.45
2018-11-14T04:05:48.197Z,101250.16
2018-11-14T04:08:15.882Z,101246.67
2018-11-14T04:10:43.476Z,101204.20
2018-11-14T04:13:11.174Z,101256.30
2018-11-14T04:15:38.841Z,101254.83
2018-11-14T04:18:06.494Z,101248.13
2018-11-14T04:20:34.205Z,101247.27
2018-11-14T04:23:01.830Z,101245.73
2018-11-14T04:25:29.406Z,101246.52
2018-11-14T04:27:56.982Z,101240.36
2018-11-14T04:30:24.674Z,101233.45
2018-11-14T04:32:52.401Z,101241.28
2018-11-14T04:35:20.797Z,101232.30
2018-11-14T04:37:48.622Z,101238.13
2018-11-14T04:40:19.187Z,101245.69
2018-11-14T04:42:46.857Z,101236.82
2018-11-14T04:45:16.007Z,101235.68
2018-11-14T04:47:43.790Z,101233.75
2018-11-14T04:50:14.991Z,101224.97
2018-11-14T04:52:43.322Z,101239.30
2018-11-14T04:55:12.504Z,101238.22
2018-11-14T04:57:40.700Z,101239.00
2018-11-14T05:00:10.074Z,101232.58
2018-11-14T05:02:38.090Z,101232.89
2018-11-14T05:05:08.317Z,101239.67
2018-11-14T05:07:36.083Z,101236.66
2018-11-14T05:10:05.241Z,101227.19
2018-11-14T05:12:32.952Z,101231.27
2018-11-14T05:15:00.551Z,101229.89
2018-11-14T05:17:28.136Z,101233.30
2018-11-14T05:19:55.756Z,101229.57
2018-11-14T05:22:23.394Z,101233.27
2018-11-14T05:24:51.165Z,101233.57
2018-11-14T05:27:18.777Z,101227.55
2018-11-14T05:29:46.473Z,101233.50
2018-11-14T05:32:14.213Z,101240.50
2018-11-14T05:34:42.033Z,101239.88
2018-11-14T05:37:09.651Z,101232.72
2018-11-14T05:39:37.377Z,101228.70
2018-11-14T05:42:04.988Z,101246.13
2018-11-14T05:44:32.640Z,101244.88
2018-11-14T05:47:00.390Z,101251.97
2018-11-14T05:49:27.998Z,101244.81
2018-11-14T05:51:55.646Z,101236.12
2018-11-14T05:54:23.354Z,101235.59
2018-11-14T05:56:51.045Z,101237.82
2018-11-14T05:59:18.865Z,101228.33
2018-11-14T06:01:46.580Z,101237.39
2018-11-14T06:04:14.297Z,101235.01
2018-11-14T06:06:41.926Z,101231.73
2018-11-14T06:09:11.622Z,101238.02
2018-11-14T06:11:39.235Z,101241.55
2018-11-14T06:14:06.976Z,101232.98
2018-11-14T06:16:34.810Z,101237.00
2018-11-14T06:19:02.506Z,101244.30
2018-11-14T06:21:30.162Z,101248.31
2018-11-14T06:23:57.814Z,101259.14
2018-11-14T06:26:25.502Z,101255.22
2018-11-14T06:28:53.137Z,101259.44
2018-11-14T06:31:20.766Z,101260.91
2018-11-14T06:33:48.381Z,101259.20
2018-11-14T06:36:16.040Z,101268.69
2018-11-14T06:38:43.674Z,101265.63
2018-11-14T06:41:11.367Z,101266.66
2018-11-14T06:43:39.013Z,101266.09
2018-11-14T06:46:06.744Z,101267.27
2018-11-14T06:48:34.417Z,101271.14
2018-11-14T06:51:02.063Z,101258.12
2018-11-14T06:53:29.765Z,101271.41
2018-11-14T06:55:57.499Z,101267.36
2018-11-14T06:58:25.127Z,101261.50
2018-11-14T07:00:52.949Z,101270.49
2018-11-14T07:03:20.694Z,101276.19
2018-11-14T07:05:48.391Z,101266.28
2018-11-14T07:08:16.029Z,101278.67
2018-11-14T07:10:43.711Z,101285.57
2018-11-14T07:13:12.363Z,101283.84
2018-11-14T07:15:40.614Z,101290.97
2018-11-14T07:18:09.331Z,101286.53
2018-11-14T07:20:38.527Z,101282.53
2018-11-14T07:23:06.549Z,101278.31
2018-11-14T07:25:34.427Z,101278.25
2018-11-14T07:28:02.113Z,101282.70
2018-11-14T07:30:30.371Z,101280.22
2018-11-14T07:33:01.122Z,101278.38
2018-11-14T07:35:28.720Z,101282.21
2018-11-14T07:38:39.235Z,101285.22
2018-11-14T07:41:09.418Z,101284.78
2018-11-14T07:43:37.649Z,101293.23
2018-11-14T07:46:05.872Z,101281.36
2018-11-14T07:48:33.808Z,101280.11
2018-11-14T07:51:01.658Z,101284.22
2018-11-14T07:53:29.322Z,101284.24
2018-11-14T07:55:57.150Z,101289.33
2018-11-14T07:58:24.782Z,101288.85
2018-11-14T08:00:52.916Z,101289.61
2018-11-14T08:03:20.540Z,101282.31
2018-11-14T08:05:48.181Z,101288.34
2018-11-14T08:08:15.920Z,101288.15
2018-11-14T08:10:43.473Z,101294.95
2018-11-14T08:13:11.150Z,101295.01
2018-11-14T08:15:38.874Z,101286.03
2018-11-14T08:18:06.648Z,101293.28
2018-11-14T08:20:34.364Z,101293.64
2018-11-14T08:23:02.018Z,101286.17
2018-11-14T08:25:29.786Z,101284.16
2018-11-14T08:27:57.376Z,101293.66
2018-11-14T08:30:24.973Z,101288.31
2018-11-14T08:32:52.633Z,101303.90
2018-11-14T08:35:20.221Z,101298.23
2018-11-14T08:37:47.841Z,101304.74
2018-11-14T08:40:15.403Z,101307.56
2018-11-14T08:42:43.071Z,101313.94
2018-11-14T08:45:11.399Z,101316.44
2018-11-14T08:47:39.764Z,101320.36
2018-11-14T08:50:11.054Z,101319.77
2018-11-14T08:52:39.253Z,101323.62
2018-11-14T08:55:07.560Z,101319.23
2018-11-14T08:57:35.513Z,101322.18
2018-11-14T09:00:04.175Z,101325.78
2018-11-14T09:02:31.774Z,101331.50
2018-11-14T09:04:59.422Z,101334.98
2018-11-14T09:07:27.109Z,101338.78
2018-11-14T09:09:54.739Z,101344.03
2018-11-14T09:12:22.345Z,101333.84
2018-11-14T09:14:50.054Z,101338.41
2018-11-14T09:17:17.707Z,101340.53
2018-11-14T09:19:45.305Z,101345.71
2018-11-14T09:22:12.993Z,101340.30
2018-11-14T09:24:40.595Z,101343.20
2018-11-14T09:27:08.295Z,101334.04
2018-11-14T09:29:35.900Z,101337.95
2018-11-14T09:32:03.803Z,101342.63
2018-11-14T09:34:31.593Z,101336.09
2018-11-14T09:36:59.197Z,101331.81
2018-11-14T09:39:26.854Z,101336.87
2018-11-14T09:41:54.476Z,101337.42
2018-11-14T09:44:22.135Z,101339.86
2018-11-14T09:46:49.764Z,101336.66
2018-11-14T09:49:17.548Z,101345.47
2018-11-14T09:51:45.198Z,101346.34
2018-11-14T09:54:12.831Z,101347.66
2018-11-14T09:56:40.427Z,101333.31
2018-11-14T09:59:08.051Z,101340.38
2018-11-14T10:01:35.646Z,101349.52
2018-11-14T10:04:03.478Z,101353.56
2018-11-14T10:06:31.132Z,101343.14
2018-11-14T10:08:58.892Z,101344.12
2018-11-14T10:11:26.484Z,101341.42
2018-11-14T10:13:54.124Z,101341.98
2018-11-14T10:16:21.738Z,101343.50
2018-11-14T10:18:49.333Z,101346.51
2018-11-14T10:21:17.014Z,101337.13
2018-11-14T10:23:44.587Z,101337.94
2018-11-14T10:26:12.285Z,101336.72
2018-11-14T10:28:39.919Z,101327.36
2018-11-14T10:31:07.578Z,101328.42
2018-11-14T10:33:35.217Z,101320.67
2018-11-14T10:36:02.829Z,101330.30
2018-11-14T10:38:30.491Z,101322.74
2018-11-14T10:40:58.125Z,101324.63
2018-11-14T10:43:25.720Z,101327.36
2018-11-14T10:45:53.355Z,101325.81
2018-11-14T10:48:21.026Z,101318.20
2018-11-14T10:50:48.630Z,101302.38
2018-11-14T10:53:16.236Z,101300.17
2018-11-14T10:55:43.863Z,101298.56
2018-11-14T10:58:11.534Z,101288.77
2018-11-14T11:00:45.014Z,101290.80
2018-11-14T11:03:18.525Z,101301.61
2018-11-14T11:06:02.994Z,101300.19
2018-11-14T11:08:36.603Z,101291.76
2018-11-14T11:11:10.441Z,101295.84
2018-11-14T11:14:13.113Z,101305.20
2018-11-14T11:16:47.854Z,101307.51
2018-11-14T11:19:20.046Z,101305.55
2018-11-14T11:21:47.730Z,101307.72
2018-11-14T11:24:16.575Z,101305.73
2018-11-14T11:26:44.245Z,101308.36
2018-11-14T11:29:11.903Z,101304.17
2018-11-14T11:31:39.563Z,101301.09
2018-11-14T11:34:08.144Z,101298.13
2018-11-14T11:36:35.874Z,101310.49
2018-11-14T11:39:07.565Z,101299.30
2018-11-14T11:41:35.304Z,101303.45
2018-11-14T11:44:02.959Z,101298.72
2018-11-14T11:46:30.643Z,101298.77
2018-11-14T11:48:58.314Z,101289.24
2018-11-14T11:51:25.969Z,101300.28
2018-11-14T11:53:53.682Z,101292.07
2018-11-14T11:56:21.361Z,101287.74
2018-11-14T11:58:48.974Z,101290.53
2018-11-14T12:01:16.626Z,101292.03
2018-11-14T12:03:44.242Z,101292.39
2018-11-14T12:06:11.939Z,101282.72
2018-11-14T12:08:39.488Z,101286.88
2018-11-14T12:11:07.133Z,101279.75
2018-11-14T12:13:34.825Z,101281.22
2018-11-14T12:16:02.463Z,101287.80
2018-11-14T12:18:30.086Z,101282.64
2018-11-14T12:20:57.634Z,101284.91
2018-11-14T12:23:25.269Z,101273.28
2018-11-14T12:25:52.894Z,101275.22
2018-11-14T12:28:20.519Z,101277.98
2018-11-14T12:30:48.367Z,101271.86
2018-11-14T12:33:15.753Z,101276.22
2018-11-14T12:35:43.450Z,101271.97
2018-11-14T12:38:11.049Z,101270.52
2018-11-14T12:40:38.631Z,101281.37
2018-11-14T12:43:06.908Z,101275.20
2018-11-14T12:45:34.555Z,101278.83
2018-11-14T12:48:02.246Z,101285.75
2018-11-14T12:50:29.969Z,101281.72
2018-11-14T12:52:57.585Z,101283.87
2018-11-14T12:55:25.224Z,101285.64
2018-11-14T12:57:52.854Z,101278.45
2018-11-14T13:00:20.957Z,101275.62
2018-11-14T13:02:48.632Z,101279.42
2018-11-14T13:05:16.589Z,101282.38
2018-11-14T13:07:44.656Z,101276.95
2018-11-14T13:10:13.575Z,101279.95
2018-11-14T13:12:41.589Z,101284.41
2018-11-14T13:15:10.643Z,101278.66
2018-11-14T13:17:38.483Z,101278.33
2018-11-14T13:20:09.369Z,101272.79
2018-11-14T13:22:36.991Z,101266.34
2018-11-14T13:25:06.737Z,101263.39
2018-11-14T13:27:34.329Z,101263.69
2018-11-14T13:30:01.905Z,101264.59
2018-11-14T13:32:29.513Z,101264.25
2018-11-14T13:34:57.501Z,101256.55
2018-11-14T13:37:25.035Z,101254.02
2018-11-14T13:39:52.633Z,101249.67
2018-11-14T13:42:20.282Z,101254.30
2018-11-14T13:44:48.159Z,101242.52
2018-11-14T13:47:15.844Z,101244.19
2018-11-14T13:49:43.744Z,101245.02
2018-11-14T13:52:11.222Z,101239.22
2018-11-14T13:54:38.843Z,101238.50
2018-11-14T13:57:06.537Z,101235.34
2018-11-14T13:59:34.189Z,101232.77
2018-11-14T14:02:01.840Z,101233.16
2018-11-14T14:04:29.511Z,101227.00
2018-11-14T14:06:57.089Z,101229.34
2018-11-14T14:09:24.820Z,101225.28
2018-11-14T14:11:52.388Z,101222.91
2018-11-14T14:14:20.169Z,101219.05
2018-11-14T14:16:48.775Z,101218.17
2018-11-14T14:19:16.796Z,101228.45
2018-11-14T14:21:44.485Z,101221.13
2018-11-14T14:24:12.253Z,101220.29
2018-11-14T14:26:40.121Z,101218.94
2018-11-14T14:29:08.431Z,101210.95
2018-11-14T14:31:36.429Z,101215.59
2018-11-14T14:34:04.535Z,101221.39
2018-11-14T14:36:32.135Z,101218.48
2018-11-14T14:38:59.854Z,101218.62
2018-11-14T14:41:27.495Z,101216.97
2018-11-14T14:43:55.156Z,101224.67
2018-11-14T15:58:24.679Z,101252.21
2018-11-14T16:00:52.344Z,101249.74
2018-11-14T16:03:20.754Z,101250.34
2018-11-14T16:05:48.446Z,101252.67
2018-11-14T16:08:16.211Z,101256.98
2018-11-14T16:10:44.620Z,101247.89
2018-11-14T16:13:12.484Z,101242.11
2018-11-14T16:15:40.109Z,101246.65
2018-11-14T16:18:07.839Z,101245.39
2018-11-14T16:20:36.234Z,101244.77
2018-11-14T16:23:03.978Z,101244.58
2018-11-14T16:25:32.459Z,101249.69
2018-11-14T16:28:01.573Z,101241.73
2018-11-14T16:30:30.786Z,101242.36
2018-11-14T16:33:01.083Z,101243.13
2018-11-14T16:35:29.141Z,101248.19
2018-11-14T16:40:39.980Z,101254.59
2018-11-14T16:43:08.727Z,101261.20
2018-11-14T16:45:37.035Z,101264.53
2018-11-14T16:48:04.752Z,101262.84
2018-11-14T16:50:33.865Z,101251.13
2018-11-14T16:53:04.160Z,101264.66
2018-11-14T16:55:31.977Z,101255.23
2018-11-14T16:57:59.691Z,101246.81
2018-11-14T17:00:28.625Z,101253.52
2018-11-14T17:02:57.402Z,101252.83
2018-11-14T17:05:27.401Z,101246.47
2018-11-14T17:07:55.432Z,101240.88
2018-11-14T17:10:24.447Z,101246.05
2018-11-14T17:12:53.616Z,101241.41
2018-11-14T17:15:23.139Z,101246.27
2018-11-14T17:17:50.999Z,101247.30
2018-11-14T17:20:19.533Z,101244.56
2018-11-14T17:22:48.037Z,101246.11
2018-11-14T17:25:16.437Z,101247.49
2018-11-14T17:27:45.527Z,101247.81
2018-11-14T17:30:16.406Z,101248.42
2018-11-14T17:32:44.821Z,101245.12
2018-11-14T17:35:13.533Z,101244.42
2018-11-14T17:37:42.208Z,101250.09
2018-11-14T17:40:13.904Z,101251.29
2018-11-14T17:42:43.181Z,101249.17
2018-11-14T17:45:14.125Z,101250.42
2018-11-14T17:47:42.041Z,101252.91
2018-11-14T17:50:17.163Z,101245.64
2018-11-14T17:52:46.023Z,101245.25
2018-11-14T17:55:17.313Z,101241.50
2018-11-14T17:57:45.004Z,101246.02
2018-11-14T18:00:15.489Z,101248.22
2018-11-14T18:02:43.708Z,101251.48
2018-11-14T18:05:12.897Z,101248.53
2018-11-14T18:07:41.141Z,101253.70
2018-11-14T18:10:11.820Z,101254.66
2018-11-14T18:12:40.712Z,101253.21
2018-11-14T18:15:09.561Z,101255.96
2018-11-14T18:17:38.088Z,101254.06
2018-11-14T18:20:09.478Z,101250.65
2018-11-14T18:22:38.564Z,101250.20
2018-11-14T18:25:06.841Z,101251.50
2018-11-14T18:27:36.169Z,101246.47
2018-11-14T18:30:08.751Z,101241.25
2018-11-14T18:32:37.317Z,101241.11
2018-11-14T18:35:09.304Z,101241.16
2018-11-14T18:37:38.018Z,101232.78
2018-11-14T18:40:09.679Z,101238.95
2018-11-14T18:42:38.205Z,101248.78
2018-11-14T18:45:11.014Z,101249.88
2018-11-14T18:47:39.200Z,101244.83
2018-11-14T18:50:09.169Z,101250.64
2018-11-14T18:52:37.222Z,101246.27
2018-11-14T18:55:08.183Z,101249.77
2018-11-14T18:57:36.155Z,101251.23
2018-11-14T19:00:07.341Z,101261.50
2018-11-14T19:02:35.207Z,101256.18
2018-11-14T19:05:03.273Z,101253.50
2018-11-14T19:07:31.975Z,101261.02
2018-11-14T19:09:59.826Z,101270.89
2018-11-14T19:12:27.700Z,101270.44
2018-11-14T19:14:55.584Z,101280.07
2018-11-14T19:17:23.977Z,101286.41
2018-11-14T19:19:51.726Z,101288.78
2018-11-14T19:22:20.035Z,101288.83
2018-11-14T19:24:49.094Z,101288.75
2018-11-14T19:27:17.414Z,101295.05
2018-11-14T19:29:45.423Z,101292.13
2018-11-14T19:32:13.273Z,101287.78
2018-11-14T19:34:41.057Z,101296.56
2018-11-14T19:37:10.283Z,101296.86
2018-11-14T19:39:38.237Z,101302.07
2018-11-14T19:42:06.781Z,101294.35
2018-11-14T19:44:34.900Z,101290.17
2018-11-14T19:47:02.849Z,101296.77
2018-11-14T19:49:30.881Z,101292.02
2018-11-14T19:51:58.940Z,101283.02
2018-11-14T19:54:26.704Z,101278.89
2018-11-14T19:56:54.652Z,101281.37
2018-11-14T19:59:22.745Z,101278.44
2018-11-14T20:01:50.775Z,101270.22
2018-11-14T20:04:18.608Z,101266.70
2018-11-14T20:06:46.733Z,101270.39
2018-11-14T20:09:14.893Z,101272.64
2018-11-14T20:11:43.397Z,101278.72
2018-11-14T20:14:11.139Z,101280.59
2018-11-14T20:16:39.649Z,101286.93
2018-11-14T20:19:08.005Z,101284.42
2018-11-14T20:21:36.608Z,101278.09
2018-11-14T20:24:06.763Z,101265.69
2018-11-14T20:26:34.519Z,101259.00
2018-11-14T20:29:02.556Z,101259.45
2018-11-14T20:31:30.634Z,101256.57
2018-11-14T20:34:00.299Z,101266.12
2018-11-14T20:36:28.156Z,101264.84
2018-11-14T20:38:55.965Z,101254.77
2018-11-14T20:41:23.882Z,101254.77
2018-11-14T20:43:51.632Z,101251.34
2018-11-14T20:46:19.486Z,101248.96
2018-11-14T20:48:47.237Z,101244.66
2018-11-14T20:51:14.912Z,101249.24
2018-11-14T20:53:42.879Z,101245.69
2018-11-14T20:56:11.070Z,101252.82
2018-11-14T20:58:38.918Z,101254.38
2018-11-14T21:01:06.830Z,101241.86
2018-11-14T21:03:36.228Z,101233.78
2018-11-14T21:06:04.089Z,101234.31
2018-11-14T21:08:31.900Z,101236.92
2018-11-14T21:10:59.687Z,101240.28
2018-11-14T21:13:27.477Z,101239.23
2018-11-14T21:15:55.291Z,101245.11
2018-11-14T21:18:23.080Z,101259.27
2018-11-14T21:20:51.447Z,101252.10
2018-11-14T21:23:21.548Z,101246.86
2018-11-14T21:25:49.351Z,101245.47
2018-11-14T21:28:17.079Z,101250.22
2018-11-14T21:30:44.884Z,101251.97
2018-11-14T21:33:12.919Z,101248.60
2018-11-14T21:35:40.607Z,101254.42
2018-11-14T21:38:08.937Z,101250.16
2018-11-14T21:40:36.727Z,101257.23
2018-11-14T21:43:05.688Z,101252.19
2018-11-14T21:45:33.532Z,101257.64
2018-11-14T21:48:07.342Z,101255.84
2018-11-14T21:50:35.490Z,101256.98
2018-11-14T21:53:03.223Z,101253.38
2018-11-14T21:55:30.920Z,101262.39
2018-11-14T21:57:58.900Z,101263.29
2018-11-14T22:00:30.501Z,101257.84
2018-11-14T22:02:58.588Z,101254.95
2018-11-14T22:05:26.274Z,101253.98
2018-11-14T22:07:54.045Z,101260.84
2018-11-14T22:10:22.829Z,101263.52
2018-11-14T22:12:51.387Z,101264.49
2018-11-14T22:15:20.288Z,101256.73
2018-11-14T22:17:48.666Z,101265.39
2018-11-14T22:20:18.203Z,101264.69
2018-11-14T22:22:46.577Z,101266.80
2018-11-14T22:25:15.625Z,101268.14
2018-11-14T22:27:43.618Z,101264.83
2018-11-14T22:30:14.689Z,101270.84
2018-11-14T22:32:42.674Z,101248.97
2018-11-14T22:35:12.849Z,101267.80
2018-11-14T22:37:40.739Z,101268.23
2018-11-14T22:40:11.466Z,101267.25
2018-11-14T22:42:39.188Z,101265.26
2018-11-14T22:45:09.976Z,101261.88
2018-11-14T22:47:38.371Z,101259.69
2018-11-14T22:50:07.866Z,101267.05
2018-11-14T22:52:35.853Z,101264.73
2018-11-14T22:55:04.788Z,101268.67
2018-11-14T22:57:32.532Z,101267.05
2018-11-14T23:00:01.013Z,101264.93
2018-11-14T23:02:29.200Z,101262.00
2018-11-14T23:04:56.965Z,101264.53
2018-11-14T23:07:24.659Z,101258.70
2018-11-14T23:09:52.393Z,101242.63
2018-11-14T23:12:20.624Z,101255.50
2018-11-14T23:14:48.475Z,101253.30
2018-11-14T23:17:16.318Z,101254.23
2018-11-14T23:19:44.027Z,101246.13
2018-11-14T23:22:11.729Z,101243.16
2018-11-14T23:24:39.553Z,101241.05
2018-11-14T23:27:08.358Z,101237.19
2018-11-14T23:29:36.062Z,101243.69
2018-11-14T23:32:04.369Z,101241.61
2018-11-14T23:34:32.212Z,101238.60
2018-11-14T23:36:59.940Z,101248.59
2018-11-14T23:39:27.680Z,101240.02
2018-11-14T23:41:55.404Z,101242.28
2018-11-14T23:44:23.537Z,101244.71
2018-11-14T23:46:51.320Z,101245.01
2018-11-14T23:49:19.209Z,101245.61
2018-11-14T23:51:46.872Z,101241.30
2018-11-14T23:54:14.652Z,101235.73
2018-11-14T23:56:42.683Z,101235.10
2018-11-14T23:59:10.375Z,101242.00
